Time;durP1;ratioP1;P1;durP2;ratioP2;P2;SDS_P1;SDS_P2;PMS_P1;PMS_P2;Temp;Humidity;BMP_temperature;BMP_pressure;BME280_temperature;BME280_humidity;BME280_pressure;Samples;Min_cycle;Max_cycle;Signal;HPM_P1;HPM_P2
2024/04/02 00:00:40;;;;;;;;;;;;;;;20.60;31.80;97280.44;5057933;28;1440;-72
2024/04/02 00:03:05;;;;;;;;;;;;;;;20.98;31.40;97283.13;5058796;28;1038;-72
2024/04/02 00:05:31;;;;;;;;;;;;;;;20.70;31.46;97273.63;5058676;28;965;-72
2024/04/02 00:07:56;;;;;;;;;;;;;;;20.89;31.32;97280.25;5035052;28;1010;-72
2024/04/02 00:10:22;;;;;;;;;;;;;;;20.92;31.17;97279.31;5035286;28;1031;-72
2024/04/02 00:12:47;;;;;;;;;;;;;;;20.92;31.40;97284.97;5034971;28;947;-72
2024/04/02 00:15:13;;;;;;;;;;;;;;;20.97;30.83;97288.00;5033661;28;1976;-72
2024/04/02 00:17:39;;;;;;;;;;;;;;;20.94;31.04;97282.50;5001894;28;1334;-72
2024/04/02 00:20:04;;;;;;;;;;;;;;;20.94;30.81;97274.00;5018377;28;1119;-72
2024/04/02 00:22:30;;;;;;;;;;;;;;;20.76;31.23;97266.94;5027131;28;1562;-72
2024/04/02 00:24:55;;;;;;;;;;;;;;;20.56;31.32;97269.25;5028118;28;1121;-72
2024/04/02 00:27:21;;;;;;;;;;;;;;;20.56;31.67;97269.25;5069758;28;1498;-72
2024/04/02 00:29:46;;;;;;;;;;;;;;;20.68;31.37;97271.25;5058035;28;991;-72
2024/04/02 00:32:12;;;;;;;;;;;;;;;20.65;31.43;97265.72;5058097;28;944;-72
2024/04/02 00:34:42;;;;;;;;;;;;;;;20.52;31.32;97268.56;5057538;28;1914;-72
2024/04/02 00:37:07;;;;;;;;;;;;;;;20.73;31.04;97267.84;5057808;28;1008;-72
2024/04/02 00:39:36;;;;;;;;;;;;;;;20.76;31.50;97261.28;5089073;28;915;-72
2024/04/02 00:42:01;;;;;;;;;;;;;;;20.75;31.76;97265.34;5098583;28;1625;-72
2024/04/02 00:44:27;;;;;;;;;;;;;;;20.66;32.70;97253.94;5116808;28;917;-72
2024/04/02 00:46:52;;;;;;;;;;;;;;;20.75;32.76;97256.88;5116959;28;982;-72
2024/04/02 00:49:18;;;;;;;;;;;;;;;20.77;33.17;97260.03;5099336;28;1061;-72
2024/04/02 00:51:43;;;;;;;;;;;;;;;20.66;33.15;97256.00;5081244;28;1034;-71
2024/04/02 00:54:09;;;;;;;;;;;;;;;20.95;32.38;97255.78;5098992;28;1898;-72
2024/04/02 00:56:34;;;;;;;;;;;;;;;21.01;31.63;97243.44;5059719;28;1427;-72
2024/04/02 00:59:00;;;;;;;;;;;;;;;20.98;31.61;97240.72;5054270;28;1142;-72
2024/04/02 01:01:25;;;;;;;;;;;;;;;20.80;31.49;97244.97;5014567;28;1472;-72
2024/04/02 01:03:51;;;;;;;;;;;;;;;20.53;31.87;97241.91;5051109;28;1514;-72
2024/04/02 01:06:16;;;;;;;;;;;;;;;20.81;31.85;97246.56;5054016;28;1011;-72
2024/04/02 01:08:42;;;;;;;;;;;;;;;21.05;31.27;97232.78;5053941;28;981;-72
2024/04/02 01:11:07;;;;;;;;;;;;;;;21.03;31.07;97240.13;5054091;28;993;-72
2024/04/02 01:13:34;;;;;;;;;;;;;;;20.83;31.67;97245.31;5053944;28;1048;-71
2024/04/02 01:16:06;;;;;;;;;;;;;;;20.88;31.44;97239.06;5053765;28;1902;-72
2024/04/02 01:18:31;;;;;;;;;;;;;;;20.67;31.67;97230.09;5037890;28;1738;-72
2024/04/02 01:20:57;;;;;;;;;;;;;;;20.62;31.62;97238.38;5034201;28;983;-72
2024/04/02 01:23:22;;;;;;;;;;;;;;;20.62;31.49;97233.50;5017362;28;936;-73
2024/04/02 01:25:48;;;;;;;;;;;;;;;20.71;31.39;97229.97;5033818;28;1165;-72
2024/04/02 01:28:13;;;;;;;;;;;;;;;20.66;31.66;97228.50;5036913;28;1162;-72
2024/04/02 01:30:39;;;;;;;;;;;;;;;20.54;31.75;97220.88;5060664;28;1646;-72
2024/04/02 01:33:04;;;;;;;;;;;;;;;20.48;31.51;97222.72;5116802;28;930;-72
2024/04/02 01:35:30;;;;;;;;;;;;;;;20.75;31.33;97220.13;5116671;28;1993;-72
2024/04/02 01:37:55;;;;;;;;;;;;;;;20.71;30.96;97213.00;5116798;28;955;-72
2024/04/02 01:40:21;;;;;;;;;;;;;;;20.62;31.36;97208.06;5081338;28;961;-72
2024/04/02 01:42:46;;;;;;;;;;;;;;;20.37;31.59;97210.97;5098281;28;987;-72
2024/04/02 01:45:12;;;;;;;;;;;;;;;20.65;31.05;97215.63;5115741;28;1661;-73
2024/04/02 01:47:37;;;;;;;;;;;;;;;20.64;31.28;97219.72;5076022;28;923;-72
2024/04/02 01:50:03;;;;;;;;;;;;;;;20.67;31.07;97207.47;5058022;28;976;-72
2024/04/02 01:52:28;;;;;;;;;;;;;;;20.35;31.50;97219.06;5075793;28;969;-71
2024/04/02 01:54:54;;;;;;;;;;;;;;;20.48;31.50;97222.72;5057671;28;1902;-72
2024/04/02 01:57:19;;;;;;;;;;;;;;;20.66;31.87;97227.72;5077608;28;889;-72
2024/04/02 01:59:45;;;;;;;;;;;;;;;20.73;32.18;97221.84;5079901;28;939;-72
2024/04/02 02:02:10;;;;;;;;;;;;;;;20.92;32.24;97228.41;5098241;28;1468;-71
2024/04/02 02:04:36;;;;;;;;;;;;;;;20.84;32.58;97221.47;5084165;28;974;-72
2024/04/02 02:07:02;;;;;;;;;;;;;;;20.88;32.35;97222.91;5057247;28;1125;-72
2024/04/02 02:09:27;;;;;;;;;;;;;;;20.91;32.11;97238.16;5040626;28;1234;-71
2024/04/02 02:11:53;;;;;;;;;;;;;;;20.89;31.81;97235.00;5057372;28;1026;-72
2024/04/02 02:14:18;;;;;;;;;;;;;;;20.81;31.91;97235.25;5056925;28;1910;-72
2024/04/02 02:16:44;;;;;;;;;;;;;;;20.84;31.58;97233.56;5056535;28;1427;-72
2024/04/02 02:19:09;;;;;;;;;;;;;;;20.79;31.51;97232.09;5040337;28;1012;-72
2024/04/02 02:21:36;;;;;;;;;;;;;;;20.68;31.86;97231.69;5057071;28;1060;-72
2024/04/02 02:24:02;;;;;;;;;;;;;;;20.67;31.50;97221.59;5020194;28;1068;-72
2024/04/02 02:26:28;;;;;;;;;;;;;;;20.58;31.57;97221.53;5037190;28;1026;-72
2024/04/02 02:28:54;;;;;;;;;;;;;;;20.61;31.52;97220.63;5020537;28;1050;-72
2024/04/02 02:31:19;;;;;;;;;;;;;;;20.61;31.64;97231.91;4990286;28;1342;-72
2024/04/02 02:33:48;;;;;;;;;;;;;;;20.36;32.00;97231.94;4982563;28;1006;-72
2024/04/02 02:36:13;;;;;;;;;;;;;;;20.80;31.08;97233.69;4977928;28;1915;-72
2024/04/02 02:38:39;;;;;;;;;;;;;;;20.84;30.85;97232.78;4995985;28;1178;-72
2024/04/02 02:41:04;;;;;;;;;;;;;;;20.33;31.84;97232.88;5016890;28;1213;-71
2024/04/02 02:43:30;;;;;;;;;;;;;;;20.55;31.18;97222.44;5017029;28;1026;-72
2024/04/02 02:45:55;;;;;;;;;;;;;;;20.62;31.10;97222.19;5014185;28;1263;-72
2024/04/02 02:48:21;;;;;;;;;;;;;;;20.73;31.15;97225.44;5020190;28;1091;-72
2024/04/02 02:50:46;;;;;;;;;;;;;;;20.37;31.30;97228.69;4983861;28;1162;-72
2024/04/02 02:53:12;;;;;;;;;;;;;;;20.53;31.28;97227.78;5000482;28;989;-72
2024/04/02 02:55:38;;;;;;;;;;;;;;;20.61;31.07;97226.28;5015141;28;1988;-73
2024/04/02 02:58:03;;;;;;;;;;;;;;;20.56;31.02;97224.03;5036574;28;898;-72
2024/04/02 03:00:29;;;;;;;;;;;;;;;20.70;30.59;97217.88;5035753;28;1390;-72
2024/04/02 03:02:54;;;;;;;;;;;;;;;20.62;30.92;97222.19;5036084;28;870;-72
2024/04/02 03:05:20;;;;;;;;;;;;;;;20.97;30.31;97208.03;5036553;28;1022;-71
2024/04/02 03:07:45;;;;;;;;;;;;;;;20.80;30.45;97213.88;5029946;28;1382;-72
2024/04/02 03:10:11;;;;;;;;;;;;;;;20.75;30.67;97217.28;5039842;28;1018;-72
2024/04/02 03:12:36;;;;;;;;;;;;;;;20.81;31.30;97223.94;5056126;28;1058;-72
2024/04/02 03:15:02;;;;;;;;;;;;;;;20.83;31.81;97225.50;5083564;28;1905;-72
2024/04/02 03:17:28;;;;;;;;;;;;;;;20.97;31.90;97219.34;5039389;28;1007;-72
2024/04/02 03:19:53;;;;;;;;;;;;;;;20.76;32.42;97218.09;5039497;28;1046;-73
2024/04/02 03:22:19;;;;;;;;;;;;;;;20.94;32.26;97214.63;5043909;28;1443;-72
2024/04/02 03:24:44;;;;;;;;;;;;;;;20.99;32.04;97212.00;5035460;28;1462;-72
2024/04/02 03:27:10;;;;;;;;;;;;;;;20.92;32.05;97205.78;5017016;28;1632;-72
2024/04/02 03:29:35;;;;;;;;;;;;;;;20.99;31.96;97205.56;5038934;28;1148;-72
2024/04/02 03:32:01;;;;;;;;;;;;;;;20.84;31.63;97198.84;5055880;28;1004;-72
2024/04/02 03:34:27;;;;;;;;;;;;;;;20.81;31.64;97195.66;5055687;28;1902;-72
2024/04/02 03:36:53;;;;;;;;;;;;;;;20.90;31.44;97192.13;5055499;28;966;-71
2024/04/02 03:39:19;;;;;;;;;;;;;;;20.73;31.59;97194.34;5038980;28;1298;-71
2024/04/02 03:41:44;;;;;;;;;;;;;;;20.98;31.14;97192.63;5058536;28;1479;-72
2024/04/02 03:44:10;;;;;;;;;;;;;;;20.67;31.53;97189.72;5058903;28;988;-72
2024/04/02 03:46:35;;;;;;;;;;;;;;;20.93;30.84;97184.75;5058496;28;1029;-73
2024/04/02 03:49:01;;;;;;;;;;;;;;;20.92;31.03;97183.19;5085858;28;929;-72
2024/04/02 03:51:26;;;;;;;;;;;;;;;20.95;30.76;97179.44;5097979;28;944;-72
2024/04/02 03:53:52;;;;;;;;;;;;;;;20.87;30.72;97192.25;5096690;28;938;-72
2024/04/02 03:56:18;;;;;;;;;;;;;;;20.71;31.02;97179.88;5095914;28;1902;-72
2024/04/02 03:58:43;;;;;;;;;;;;;;;20.57;31.39;97180.38;5095813;28;1459;-72
2024/04/02 04:01:09;;;;;;;;;;;;;;;20.55;31.53;97171.56;5080748;28;1174;-72
2024/04/02 04:03:35;;;;;;;;;;;;;;;20.59;31.18;97168.63;5093080;28;838;-72
2024/04/02 04:06:01;;;;;;;;;;;;;;;20.61;31.29;97192.34;5077538;28;902;-72
2024/04/02 04:08:27;;;;;;;;;;;;;;;20.67;30.93;97162.25;5075897;28;1110;-72
2024/04/02 04:10:53;;;;;;;;;;;;;;;20.77;30.95;97169.56;5077295;28;1050;-72
2024/04/02 04:13:19;;;;;;;;;;;;;;;20.48;31.41;97174.66;5076008;28;1118;-72
2024/04/02 04:15:54;;;;;;;;;;;;;;;20.56;31.07;97178.81;5097037;28;1979;-72
2024/04/02 04:18:20;;;;;;;;;;;;;;;20.44;31.43;97193.75;5096272;28;1018;-72
2024/04/02 04:20:56;;;;;;;;;;;;;;;20.83;30.61;97194.41;5078439;28;963;-72
2024/04/02 04:23:21;;;;;;;;;;;;;;;20.65;31.56;97192.22;5062118;28;1021;-72
2024/04/02 04:25:53;;;;;;;;;;;;;;;20.68;31.87;97183.63;5079254;28;1332;-71
2024/04/02 04:28:19;;;;;;;;;;;;;;;20.84;31.71;97198.84;5078885;28;988;-72
2024/04/02 04:30:50;;;;;;;;;;;;;;;20.71;32.07;97196.06;5078958;28;1055;-71
2024/04/02 04:33:16;;;;;;;;;;;;;;;20.78;31.89;97193.00;5097070;28;1001;-73
2024/04/02 04:35:41;;;;;;;;;;;;;;;20.60;31.64;97190.78;5061354;28;1902;-72
2024/04/02 04:38:07;;;;;;;;;;;;;;;20.52;31.77;97183.78;5096774;28;969;-72
2024/04/02 04:40:32;;;;;;;;;;;;;;;20.50;31.69;97189.13;5069603;28;1993;-72
2024/04/02 04:42:58;;;;;;;;;;;;;;;20.80;31.02;97165.81;5074180;28;1056;-72
2024/04/02 04:45:23;;;;;;;;;;;;;;;20.79;31.33;97180.41;5074248;28;1285;-72
2024/04/02 04:47:49;;;;;;;;;;;;;;;20.64;31.41;97179.34;5053877;28;1105;-72
2024/04/02 04:50:14;;;;;;;;;;;;;;;20.88;30.92;97165.53;5019989;28;1248;-72
2024/04/02 04:52:40;;;;;;;;;;;;;;;20.88;30.75;97172.00;5037289;28;906;-72
2024/04/02 04:55:06;;;;;;;;;;;;;;;20.64;31.12;97168.03;5037037;28;1903;-72
2024/04/02 04:57:31;;;;;;;;;;;;;;;20.57;31.22;97174.72;5037564;28;1001;-72
2024/04/02 04:59:57;;;;;;;;;;;;;;;20.63;31.06;97175.75;5037391;28;1338;-72
2024/04/02 05:02:23;;;;;;;;;;;;;;;20.79;30.93;97166.28;5033866;28;969;-72
2024/04/02 05:04:48;;;;;;;;;;;;;;;20.81;30.70;97167.38;5017535;28;1002;-72
2024/04/02 05:07:23;;;;;;;;;;;;;;;20.83;30.96;97180.28;5033988;28;1070;-72
2024/04/02 05:09:49;;;;;;;;;;;;;;;20.83;30.88;97160.47;5033587;28;1770;-72
2024/04/02 05:12:15;;;;;;;;;;;;;;;20.67;30.97;97162.25;5016703;28;893;-73
2024/04/02 05:14:40;;;;;;;;;;;;;;;20.73;30.91;97160.44;5053812;28;2061;-72
2024/04/02 05:17:06;;;;;;;;;;;;;;;21.06;30.47;97165.69;5053419;28;1214;-73
2024/04/02 05:19:31;;;;;;;;;;;;;;;21.06;30.40;97171.34;5053973;28;889;-73
2024/04/02 05:21:57;;;;;;;;;;;;;;;20.75;30.69;97157.13;5036998;28;1090;-76
2024/04/02 05:24:22;;;;;;;;;;;;;;;20.76;30.94;97156.66;5053588;28;987;-74
2024/04/02 05:26:48;;;;;;;;;;;;;;;21.05;30.57;97161.28;5054318;28;1019;-67
2024/04/02 05:29:16;;;;;;;;;;;;;;;21.36;29.99;97149.22;5053931;28;1003;-67
2024/04/02 05:31:42;;;;;;;;;;;;;;;21.35;30.23;97150.47;5051982;28;2014;-74
2024/04/02 05:34:07;;;;;;;;;;;;;;;21.10;30.28;97126.75;5058436;28;2676;-74
2024/04/02 05:36:33;;;;;;;;;;;;;;;20.92;31.08;97149.25;5026194;28;2851;-75
2024/04/02 05:38:58;;;;;;;;;;;;;;;20.89;31.52;97139.66;5082475;28;1816;-77
2024/04/02 05:41:24;;;;;;;;;;;;;;;20.59;31.78;97137.53;5052591;28;1961;-68
2024/04/02 05:43:49;;;;;;;;;;;;;;;20.20;32.70;97143.28;5069739;28;1117;-67
2024/04/02 05:46:15;;;;;;;;;;;;;;;20.24;32.85;97118.53;5083893;28;1004;-72
2024/04/02 05:48:41;;;;;;;;;;;;;;;20.01;33.22;97118.97;5060653;28;1064;-69
2024/04/02 05:51:06;;;;;;;;;;;;;;;20.09;33.25;97122.31;5075179;28;1081;-70
2024/04/02 05:53:32;;;;;;;;;;;;;;;19.70;34.24;97125.22;5099961;28;1062;-69
2024/04/02 05:55:59;;;;;;;;;;;;;;;20.10;33.37;97129.53;5064646;28;1981;-70
2024/04/02 05:58:25;;;;;;;;;;;;;;;19.90;34.02;97129.81;5260124;22;3477;-77
2024/04/02 06:01:00;;;;;;;;;;;;;;;19.77;34.23;97130.63;5032135;28;2715;-77
2024/04/02 06:03:25;;;;;;;;;;;;;;;19.42;34.65;97137.38;5038662;28;1760;-77
2024/04/02 06:05:51;;;;;;;;;;;;;;;19.78;34.07;97137.84;5047512;28;2378;-74
2024/04/02 06:08:16;;;;;;;;;;;;;;;20.05;33.73;97142.19;5024274;28;2225;-76
2024/04/02 06:10:42;;;;;;;;;;;;;;;19.88;34.11;97140.78;5027372;28;1088;-77
2024/04/02 06:13:07;;;;;;;;;;;;;;;20.23;33.45;97136.72;5019781;28;1510;-75
2024/04/02 06:15:33;;;;;;;;;;;;;;;19.97;33.90;97138.03;5030073;28;2003;-74
2024/04/02 06:17:58;;;;;;;;;;;;;;;20.08;33.82;97132.81;5017097;28;1123;-76
2024/04/02 06:20:24;;;;;;;;;;;;;;;19.91;34.00;97123.72;5018502;28;1069;-79
2024/04/02 06:22:49;;;;;;;;;;;;;;;19.80;34.06;97122.47;5018498;28;1082;-79
2024/04/02 06:25:15;;;;;;;;;;;;;;;20.10;33.80;97123.88;5021434;28;981;-79
2024/04/02 06:27:41;;;;;;;;;;;;;;;20.44;32.93;97126.72;5021865;28;1103;-80
2024/04/02 06:30:07;;;;;;;;;;;;;;;20.16;33.56;97122.06;4962366;28;1169;-79
2024/04/02 06:32:33;;;;;;;;;;;;;;;20.41;33.08;97126.84;4978895;28;1075;-79
2024/04/02 06:34:58;;;;;;;;;;;;;;;19.94;34.14;97122.00;4962371;28;1902;-80
2024/04/02 06:37:24;;;;;;;;;;;;;;;20.06;33.87;97115.56;4990370;28;1036;-80
2024/04/02 06:39:49;;;;;;;;;;;;;;;20.11;33.86;97109.34;5017820;28;944;-79
2024/04/02 06:42:15;;;;;;;;;;;;;;;19.97;33.78;97110.59;5017626;28;1061;-79
2024/04/02 06:44:40;;;;;;;;;;;;;;;20.32;33.28;97101.34;5001984;28;1568;-78
2024/04/02 06:47:06;;;;;;;;;;;;;;;20.20;33.70;97117.88;5001866;28;942;-80
2024/04/02 06:49:31;;;;;;;;;;;;;;;20.28;33.63;97116.38;5002251;28;1004;-79
2024/04/02 06:51:57;;;;;;;;;;;;;;;20.15;33.87;97121.28;4986108;28;1112;-80
2024/04/02 06:54:22;;;;;;;;;;;;;;;20.10;34.09;97110.56;4959550;29;1911;-79
2024/04/02 06:56:48;;;;;;;;;;;;;;;20.18;33.88;97128.84;4943217;29;1085;-79
2024/04/02 06:59:13;;;;;;;;;;;;;;;20.15;33.99;97126.91;4927750;29;1269;-78
2024/04/02 07:01:39;;;;;;;;;;;;;;;20.01;34.13;97116.13;4985896;28;1137;-79
2024/04/02 07:04:04;;;;;;;;;;;;;;;20.57;33.27;97117.41;5017139;28;854;-79
2024/04/02 07:06:30;;;;;;;;;;;;;;;20.60;33.06;97111.63;5017550;28;723;-79
2024/04/02 07:08:58;;;;;;;;;;;;;;;20.18;33.86;97122.41;4996185;28;1532;-79
2024/04/02 07:11:24;;;;;;;;;;;;;;;20.11;34.09;97123.44;4982028;28;1065;-80
2024/04/02 07:13:49;;;;;;;;;;;;;;;20.28;33.64;97119.19;4958952;29;969;-79
2024/04/02 07:16:15;;;;;;;;;;;;;;;20.48;33.38;97120.97;4942900;29;1903;-79
2024/04/02 07:18:40;;;;;;;;;;;;;;;20.11;34.13;97106.50;4959361;28;1605;-79
2024/04/02 07:21:06;;;;;;;;;;;;;;;20.15;33.91;97114.84;4952487;28;1067;-76
2024/04/02 07:23:32;;;;;;;;;;;;;;;20.17;34.39;97118.78;4933516;29;2140;-76
2024/04/02 07:25:57;;;;;;;;;;;;;;;20.45;34.32;97121.84;4975086;28;1030;-76
2024/04/02 07:28:23;;;;;;;;;;;;;;;20.34;34.52;97121.44;4999872;28;983;-75
2024/04/02 07:30:48;;;;;;;;;;;;;;;20.65;33.74;97119.53;4938135;29;1156;-75
2024/04/02 07:33:14;;;;;;;;;;;;;;;20.15;35.33;97104.31;4934927;29;1345;-75
2024/04/02 07:35:39;;;;;;;;;;;;;;;20.72;34.30;97119.25;4930812;29;1899;-72
2024/04/02 07:39:07;;;;;;;;;;;;;;;22.16;32.38;97126.53;5092432;27;1327;-70
2024/04/02 07:41:33;;;;;;;;;;;;;;;22.26;31.55;97119.63;5117391;28;1454;-76
2024/04/02 07:43:58;;;;;;;;;;;;;;;22.87;30.07;97123.41;5082629;28;1615;-76
2024/04/02 07:46:24;;;;;;;;;;;;;;;21.96;31.90;97129.00;5080451;28;1559;-72
2024/04/02 07:48:49;;;;;;;;;;;;;;;22.81;31.07;97119.63;5082487;28;1468;-75
2024/04/02 07:51:15;;;;;;;;;;;;;;;22.72;30.96;97105.47;5083148;28;1475;-73
2024/04/02 07:53:40;;;;;;;;;;;;;;;22.02;32.07;97118.59;5081052;28;1527;-72
2024/04/02 07:56:06;;;;;;;;;;;;;;;22.77;30.90;97113.31;5081966;28;1551;-70
2024/04/02 07:58:31;;;;;;;;;;;;;;;22.59;31.16;97102.00;5082582;28;1967;-75
2024/04/02 08:00:57;;;;;;;;;;;;;;;22.66;31.13;97118.69;5081018;28;1485;-72
2024/04/02 08:03:23;;;;;;;;;;;;;;;23.10;30.91;97115.50;5082026;28;1550;-73
2024/04/02 08:05:55;;;;;;;;;;;;;;;23.09;30.52;97111.88;5082472;28;1598;-73
2024/04/02 08:08:20;;;;;;;;;;;;;;;22.92;30.52;97101.38;5082182;28;1579;-76
2024/04/02 08:10:46;;;;;;;;;;;;;;;22.94;30.44;97104.50;5078967;28;1716;-77
2024/04/02 08:13:11;;;;;;;;;;;;;;;23.05;29.83;97101.94;5089652;28;1499;-74
2024/04/02 08:15:38;;;;;;;;;;;;;;;23.01;29.85;97104.19;5126036;27;944;-72
2024/04/02 08:18:03;;;;;;;;;;;;;;;22.17;30.81;97105.44;5072895;28;2045;-74
2024/04/02 08:20:29;;;;;;;;;;;;;;;21.73;31.04;97107.69;5087911;28;1222;-73
2024/04/02 08:22:56;;;;;;;;;;;;;;;22.15;30.33;97102.31;5079866;28;2801;-75
2024/04/02 08:25:21;;;;;;;;;;;;;;;21.95;30.79;97105.53;5090941;28;1098;-71
2024/04/02 08:27:47;;;;;;;;;;;;;;;22.32;29.78;97105.63;5125038;28;1082;-73
2024/04/02 08:30:12;;;;;;;;;;;;;;;22.15;29.84;97099.47;5076531;28;1515;-75
2024/04/02 08:32:38;;;;;;;;;;;;;;;22.35;29.52;97099.81;5082007;28;1658;-82
2024/04/02 08:35:04;;;;;;;;;;;;;;;22.81;29.35;97096.94;5079073;28;1608;-76
2024/04/02 08:37:30;;;;;;;;;;;;;;;22.76;29.33;97094.75;5077038;28;1906;-78
2024/04/02 08:39:56;;;;;;;;;;;;;;;23.12;29.10;97093.13;5076138;28;1457;-76
2024/04/02 08:42:21;;;;;;;;;;;;;;;22.88;29.30;97082.44;5078804;28;1406;-76
2024/04/02 08:44:47;;;;;;;;;;;;;;;22.63;29.35;97079.94;5059674;28;1477;-69
2024/04/02 08:47:13;;;;;;;;;;;;;;;22.72;28.98;97081.97;5067356;28;1731;-75
2024/04/02 08:49:38;;;;;;;;;;;;;;;22.49;29.09;97081.38;5041655;28;2149;-75
2024/04/02 08:52:04;;;;;;;;;;;;;;;22.20;29.51;97092.41;5018510;28;1830;-75
2024/04/02 08:54:30;;;;;;;;;;;;;;;22.12;29.27;97085.44;5039556;28;978;-75
2024/04/02 08:56:56;;;;;;;;;;;;;;;22.02;29.30;97076.13;5055848;28;1983;-75
2024/04/02 08:59:23;;;;;;;;;;;;;;;22.10;28.80;97071.72;5022988;28;1168;-75
2024/04/02 09:01:49;;;;;;;;;;;;;;;21.78;29.02;97068.22;5039417;28;979;-75
2024/04/02 09:04:14;;;;;;;;;;;;;;;21.61;29.10;97055.63;5022550;28;977;-75
2024/04/02 09:06:40;;;;;;;;;;;;;;;21.77;28.85;97058.16;5039405;28;1024;-75
2024/04/02 09:09:05;;;;;;;;;;;;;;;22.07;28.02;97044.34;5022745;28;1844;-75
2024/04/02 09:11:32;;;;;;;;;;;;;;;21.90;27.97;97051.56;5057399;28;882;-75
2024/04/02 09:14:04;;;;;;;;;;;;;;;21.76;28.08;97041.63;5090103;28;1041;-75
2024/04/02 09:16:32;;;;;;;;;;;;;;;21.61;28.18;97052.78;5090491;28;949;-74
2024/04/02 09:19:01;;;;;;;;;;;;;;;21.68;27.81;97049.66;5073559;28;1918;-75
2024/04/02 09:21:29;;;;;;;;;;;;;;;21.65;27.84;97035.63;5079093;28;993;-75
2024/04/02 09:23:55;;;;;;;;;;;;;;;21.62;27.86;97037.38;5095602;28;1039;-75
2024/04/02 09:26:22;;;;;;;;;;;;;;;21.68;27.81;97034.69;5062477;28;1070;-75
2024/04/02 09:28:48;;;;;;;;;;;;;;;21.72;27.85;97021.97;5062632;28;1158;-75
2024/04/02 09:31:14;;;;;;;;;;;;;;;21.76;27.58;97019.78;5098635;28;1580;-75
2024/04/02 09:33:40;;;;;;;;;;;;;;;21.55;27.94;97015.00;5107164;28;1666;-75
2024/04/02 09:36:06;;;;;;;;;;;;;;;21.66;27.57;97015.38;5116258;28;939;-75
2024/04/02 09:38:34;;;;;;;;;;;;;;;21.51;27.89;97014.38;5090420;28;1918;-75
2024/04/02 09:41:00;;;;;;;;;;;;;;;21.91;27.08;97007.81;5084597;28;1511;-75
2024/04/02 09:43:25;;;;;;;;;;;;;;;21.62;27.84;97009.06;5068912;28;1907;-75
2024/04/02 09:45:51;;;;;;;;;;;;;;;21.87;27.23;96995.88;5085936;28;1577;-75
2024/04/02 09:48:16;;;;;;;;;;;;;;;21.95;27.07;97002.78;5060440;28;2170;-75
2024/04/02 09:50:43;;;;;;;;;;;;;;;21.66;27.46;97004.03;5055163;28;1059;-75
2024/04/02 09:53:09;;;;;;;;;;;;;;;21.81;27.21;96990.84;5010036;28;1306;-75
2024/04/02 09:55:35;;;;;;;;;;;;;;;21.83;27.29;96990.38;5003870;28;1457;-75
2024/04/02 09:58:00;;;;;;;;;;;;;;;21.09;27.87;96910.22;5018252;28;1993;-75
2024/04/02 10:00:26;;;;;;;;;;;;;;;21.89;27.08;96985.66;5034162;28;1004;-76
2024/04/02 10:02:51;;;;;;;;;;;;;;;21.52;27.43;96998.97;5034410;28;980;-75
2024/04/02 10:05:20;;;;;;;;;;;;;;;21.53;27.55;97003.38;5034656;28;1052;-76
2024/04/02 10:07:48;;;;;;;;;;;;;;;21.27;28.03;97006.41;5018017;28;1414;-76
2024/04/02 10:10:15;;;;;;;;;;;;;;;21.41;27.86;97004.31;5012152;28;1532;-74
2024/04/02 10:12:40;;;;;;;;;;;;;;;21.38;27.81;97016.53;5012511;28;1533;-76
2024/04/02 10:15:09;;;;;;;;;;;;;;;21.58;27.49;97011.25;5028258;28;1576;-77
2024/04/02 10:17:35;;;;;;;;;;;;;;;21.72;27.39;97007.03;5025904;28;1913;-75
2024/04/02 10:20:00;;;;;;;;;;;;;;;21.57;27.44;97012.50;5039518;28;2074;-76
2024/04/02 10:22:36;;;;;;;;;;;;;;;21.57;27.66;97021.00;5025714;28;1433;-75
2024/04/02 10:25:08;;;;;;;;;;;;;;;21.58;27.44;97009.19;5044793;28;1501;-75
2024/04/02 10:27:34;;;;;;;;;;;;;;;21.57;27.52;97015.34;5060605;28;1463;-76
2024/04/02 10:29:59;;;;;;;;;;;;;;;21.47;27.60;97019.41;5059894;28;1583;-74
2024/04/02 10:32:30;;;;;;;;;;;;;;;21.44;27.48;97032.44;5044804;28;1484;-73
2024/04/02 10:34:55;;;;;;;;;;;;;;;21.41;27.56;97029.78;5062781;28;1490;-75
2024/04/02 10:37:21;;;;;;;;;;;;;;;21.57;27.42;97040.81;5063296;28;1897;-74
2024/04/02 10:39:46;;;;;;;;;;;;;;;21.35;27.78;97052.25;5048503;28;1533;-74
2024/04/02 10:42:12;;;;;;;;;;;;;;;21.37;27.73;97068.75;5074167;28;989;-75
2024/04/02 10:44:37;;;;;;;;;;;;;;;21.60;27.62;97062.50;5073874;28;1074;-74
2024/04/02 10:47:03;;;;;;;;;;;;;;;21.74;27.25;97061.91;5074024;28;1050;-74
2024/04/02 10:49:28;;;;;;;;;;;;;;;21.44;27.84;97054.28;5040418;28;1101;-74
2024/04/02 10:51:54;;;;;;;;;;;;;;;21.18;28.53;97060.13;5074787;28;1233;-74
2024/04/02 10:54:19;;;;;;;;;;;;;;;21.42;28.10;97056.81;5097389;28;975;-74
2024/04/02 10:56:45;;;;;;;;;;;;;;;21.30;28.32;97055.69;5083727;28;1971;-74
2024/04/02 10:59:11;;;;;;;;;;;;;;;21.46;28.21;97057.47;5062949;28;1142;-74
2024/04/02 11:01:37;;;;;;;;;;;;;;;21.54;28.03;97053.06;5053740;28;1106;-74
2024/04/02 11:04:03;;;;;;;;;;;;;;;21.45;28.17;97055.84;5070723;28;1089;-74
2024/04/02 11:06:28;;;;;;;;;;;;;;;21.28;28.22;97058.13;5067898;28;1026;-74
2024/04/02 11:08:54;;;;;;;;;;;;;;;21.21;28.66;97076.19;5035024;28;1054;-74
2024/04/02 11:11:20;;;;;;;;;;;;;;;21.30;28.37;97070.59;5034809;28;1495;-74
2024/04/02 11:13:46;;;;;;;;;;;;;;;21.45;28.30;97050.19;5035733;28;936;-74
2024/04/02 11:16:11;;;;;;;;;;;;;;;21.35;28.61;97054.25;5035213;28;1585;-74
2024/04/02 11:18:37;;;;;;;;;;;;;;;21.61;27.93;97057.66;5045912;28;1925;-74
2024/04/02 11:21:03;;;;;;;;;;;;;;;21.38;28.29;97073.13;5065700;28;1592;-74
2024/04/02 11:26:19;;;;;;;;;;;;;;;21.43;28.20;97075.34;5065168;28;1488;-74
2024/04/02 11:28:44;;;;;;;;;;;;;;;21.46;27.97;97063.91;5064006;28;1484;-74
2024/04/02 11:31:11;;;;;;;;;;;;;;;21.39;28.38;97069.06;5079680;28;1443;-74
2024/04/02 11:33:37;;;;;;;;;;;;;;;21.29;28.28;97079.50;5065106;28;1428;-74
2024/04/02 11:36:03;;;;;;;;;;;;;;;21.22;28.46;97074.16;5063718;28;1476;-74
2024/04/02 11:38:28;;;;;;;;;;;;;;;21.17;28.61;97074.75;5064606;28;1902;-74
2024/04/02 11:40:54;;;;;;;;;;;;;;;21.13;28.55;97086.19;5045861;28;1492;-75
2024/04/02 11:43:19;;;;;;;;;;;;;;;21.30;28.55;97078.31;5067590;28;1615;-74
2024/04/02 11:45:45;;;;;;;;;;;;;;;21.36;28.50;97064.34;5075242;28;950;-74
2024/04/02 11:48:10;;;;;;;;;;;;;;;21.30;28.39;97075.47;5091404;28;1062;-74
2024/04/02 11:50:36;;;;;;;;;;;;;;;21.47;28.12;97081.66;5074448;28;972;-74
2024/04/02 11:53:01;;;;;;;;;;;;;;;21.29;28.51;97068.97;5074361;28;1224;-74
2024/04/02 11:55:27;;;;;;;;;;;;;;;21.27;28.42;97082.81;5074541;28;1112;-74
2024/04/02 12:00:36;;;;;;;;;;;;;;;21.38;28.49;97084.47;5103074;28;903;-75
2024/04/02 12:03:03;;;;;;;;;;;;;;;21.28;28.49;97080.78;5075428;28;956;-74
2024/04/02 12:05:29;;;;;;;;;;;;;;;21.31;28.34;97092.00;5107672;28;968;-74
2024/04/02 12:07:54;;;;;;;;;;;;;;;21.11;28.79;97100.03;5091133;28;1125;-74
2024/04/02 12:10:20;;;;;;;;;;;;;;;21.39;28.34;97100.19;5108179;28;932;-74
2024/04/02 12:12:46;;;;;;;;;;;;;;;21.45;28.26;97098.31;5075276;28;983;-75
2024/04/02 12:15:11;;;;;;;;;;;;;;;21.36;28.27;97092.63;5108355;28;857;-75
2024/04/02 12:17:36;;;;;;;;;;;;;;;21.43;27.95;97110.09;5074672;28;1905;-75
2024/04/02 12:20:05;;;;;;;;;;;;;;;21.56;27.77;97107.19;5102883;28;1530;-75
2024/04/02 12:22:31;;;;;;;;;;;;;;;21.35;28.28;97102.34;5054964;28;940;-77
2024/04/02 12:24:56;;;;;;;;;;;;;;;21.31;28.10;97103.31;5089497;28;916;-77
2024/04/02 12:27:22;;;;;;;;;;;;;;;21.40;28.13;97098.91;5091439;28;1264;-76
2024/04/02 12:29:57;;;;;;;;;;;;;;;21.25;28.19;97093.81;5091245;28;994;-76
2024/04/02 12:32:27;;;;;;;;;;;;;;;21.52;27.96;97100.88;5074432;28;1121;-76
2024/04/02 12:34:53;;;;;;;;;;;;;;;21.43;27.85;97093.13;5090927;28;903;-76
2024/04/02 12:37:18;;;;;;;;;;;;;;;21.39;27.72;97080.38;5056224;28;1902;-77
2024/04/02 12:39:46;;;;;;;;;;;;;;;21.53;27.73;97086.25;5059092;28;959;-76
2024/04/02 12:42:12;;;;;;;;;;;;;;;21.08;28.33;97078.31;5091242;28;896;-76
2024/04/02 12:44:39;;;;;;;;;;;;;;;21.30;27.73;97079.09;5059113;28;899;-76
2024/04/02 12:47:08;;;;;;;;;;;;;;;21.06;28.23;97080.84;5090820;28;894;-76
2024/04/02 12:49:34;;;;;;;;;;;;;;;21.13;27.88;97074.88;5090930;28;963;-76
2024/04/02 12:52:00;;;;;;;;;;;;;;;21.46;27.74;97082.94;5090831;28;957;-76
2024/04/02 12:54:25;;;;;;;;;;;;;;;21.32;27.62;97092.78;5056488;28;1075;-76
2024/04/02 12:56:51;;;;;;;;;;;;;;;21.22;27.67;97077.75;5058755;28;1928;-76
2024/04/02 12:59:16;;;;;;;;;;;;;;;21.06;27.88;97086.50;5090782;28;982;-76